sensor_id;sensor_type;location;lat;lon;timestamp;temperature;humidity
3268;DHT22;1646;52.450;13.326;2023-04-01T00:01:16;11.40;99.90
3268;DHT22;1646;52.450;13.326;2023-04-01T00:06:16;11.40;99.90
3268;DHT22;1646;52.450;13.326;2023-04-01T00:11:16;11.40;99.90
3268;DHT22;1646;52.450;13.326;2023-04-01T00:16:17;11.50;99.90
3268;DHT22;1646;52.450;13.326;2023-04-01T00:21:19;11.60;99.90
3268;DHT22;1646;52.450;13.326;2023-04-01T00:26:19;11.60;99.90
3268;DHT22;1646;52.450;13.326;2023-04-01T00:31:20;11.60;99.90
3268;DHT22;1646;52.450;13.326;2023-04-01T00:36:20;11.60;99.90
3268;DHT22;1646;52.450;13.326;2023-04-01T00:41:20;11.60;99.90
3268;DHT22;1646;52.450;13.326;2023-04-01T00:46:20;11.40;99.90
3268;DHT22;1646;52.450;13.326;2023-04-01T00:51:21;11.40;99.90
3268;DHT22;1646;52.450;13.326;2023-04-01T00:56:22;11.30;99.90
3268;DHT22;1646;52.450;13.326;2023-04-01T01:01:24;11.30;99.90
3268;DHT22;1646;52.450;13.326;2023-04-01T01:06:30;11.30;99.90
3268;DHT22;1646;52.450;13.326;2023-04-01T01:11:39;11.30;99.90
3268;DHT22;1646;52.450;13.326;2023-04-01T01:16:43;11.30;99.90
3268;DHT22;1646;52.450;13.326;2023-04-01T01:22:03;11.20;99.90
3268;DHT22;1646;52.450;13.326;2023-04-01T01:27:03;11.30;99.90
3268;DHT22;1646;52.450;13.326;2023-04-01T01:32:09;11.40;99.90
3268;DHT22;1646;52.450;13.326;2023-04-01T01:37:12;11.40;99.90
3268;DHT22;1646;52.450;13.326;2023-04-01T01:42:15;11.50;99.90
3268;DHT22;1646;52.450;13.326;2023-04-01T01:47:15;11.60;99.90
3268;DHT22;1646;52.450;13.326;2023-04-01T01:52:17;11.60;99.90
3268;DHT22;1646;52.450;13.326;2023-04-01T01:57:16;11.60;99.90
3268;DHT22;1646;52.450;13.326;2023-04-01T02:02:21;11.60;99.90
3268;DHT22;1646;52.450;13.326;2023-04-01T02:07:24;11.60;99.90
3268;DHT22;1646;52.450;13.326;2023-04-01T02:12:24;11.70;99.90
3268;DHT22;1646;52.450;13.326;2023-04-01T02:17:25;11.70;99.90
3268;DHT22;1646;52.450;13.326;2023-04-01T02:22:28;11.70;99.90
3268;DHT22;1646;52.450;13.326;2023-04-01T02:27:28;11.70;99.90
3268;DHT22;1646;52.450;13.326;2023-04-01T02:32:28;11.70;99.90
3268;DHT22;1646;52.450;13.326;2023-04-01T02:37:27;11.70;99.90
3268;DHT22;1646;52.450;13.326;2023-04-01T02:42:27;11.70;99.90
3268;DHT22;1646;52.450;13.326;2023-04-01T02:47:26;11.70;99.90
3268;DHT22;1646;52.450;13.326;2023-04-01T02:52:24;11.80;99.90
3268;DHT22;1646;52.450;13.326;2023-04-01T02:57:24;11.80;99.90
3268;DHT22;1646;52.450;13.326;2023-04-01T03:02:23;11.90;99.90
3268;DHT22;1646;52.450;13.326;2023-04-01T03:07:22;11.80;99.90
3268;DHT22;1646;52.450;13.326;2023-04-01T03:12:20;11.80;99.90
3268;DHT22;1646;52.450;13.326;2023-04-01T03:17:22;11.80;99.90
3268;DHT22;1646;52.450;13.326;2023-04-01T03:22:20;12.00;99.90
3268;DHT22;1646;52.450;13.326;2023-04-01T03:27:19;11.80;99.90
3268;DHT22;1646;52.450;13.326;2023-04-01T03:32:17;11.80;99.90
3268;DHT22;1646;52.450;13.326;2023-04-01T03:37:17;11.80;99.90
3268;DHT22;1646;52.450;13.326;2023-04-01T03:42:15;11.80;99.90
3268;DHT22;1646;52.450;13.326;2023-04-01T03:47:14;11.80;99.90
3268;DHT22;1646;52.450;13.326;2023-04-01T03:52:13;11.80;99.90
3268;DHT22;1646;52.450;13.326;2023-04-01T03:57:12;11.80;99.90
3268;DHT22;1646;52.450;13.326;2023-04-01T04:02:11;11.70;99.90
3268;DHT22;1646;52.450;13.326;2023-04-01T04:07:11;11.70;99.90
3268;DHT22;1646;52.450;13.326;2023-04-01T04:12:45;11.70;99.90
3268;DHT22;1646;52.450;13.326;2023-04-01T04:17:45;11.70;99.90
3268;DHT22;1646;52.450;13.326;2023-04-01T04:22:44;11.70;99.90
3268;DHT22;1646;52.450;13.326;2023-04-01T04:27:44;11.80;99.90
3268;DHT22;1646;52.450;13.326;2023-04-01T04:32:44;11.80;99.90
3268;DHT22;1646;52.450;13.326;2023-04-01T04:37:42;11.80;99.90
3268;DHT22;1646;52.450;13.326;2023-04-01T04:42:41;11.80;99.90
3268;DHT22;1646;52.450;13.326;2023-04-01T04:47:44;11.80;99.90
3268;DHT22;1646;52.450;13.326;2023-04-01T04:52:42;11.80;99.90
3268;DHT22;1646;52.450;13.326;2023-04-01T04:57:41;11.70;99.90
3268;DHT22;1646;52.450;13.326;2023-04-01T05:02:39;11.80;99.90
3268;DHT22;1646;52.450;13.326;2023-04-01T05:07:38;11.80;99.90
3268;DHT22;1646;52.450;13.326;2023-04-01T05:12:37;11.80;99.90
3268;DHT22;1646;52.450;13.326;2023-04-01T05:17:38;11.80;99.90
3268;DHT22;1646;52.450;13.326;2023-04-01T05:22:36;11.90;99.90
3268;DHT22;1646;52.450;13.326;2023-04-01T05:27:35;11.80;99.90
3268;DHT22;1646;52.450;13.326;2023-04-01T05:32:34;11.90;99.90
3268;DHT22;1646;52.450;13.326;2023-04-01T05:37:33;11.90;99.90
3268;DHT22;1646;52.450;13.326;2023-04-01T05:42:33;11.90;99.90
3268;DHT22;1646;52.450;13.326;2023-04-01T05:47:35;12.00;99.90
3268;DHT22;1646;52.450;13.326;2023-04-01T05:52:34;12.00;99.90
3268;DHT22;1646;52.450;13.326;2023-04-01T05:57:32;11.90;99.90
3268;DHT22;1646;52.450;13.326;2023-04-01T06:02:30;11.70;99.90
3268;DHT22;1646;52.450;13.326;2023-04-01T06:07:30;11.70;99.90
3268;DHT22;1646;52.450;13.326;2023-04-01T06:12:45;11.80;99.90
3268;DHT22;1646;52.450;13.326;2023-04-01T06:17:56;12.00;99.90
3268;DHT22;1646;52.450;13.326;2023-04-01T06:23:14;12.00;99.90
3268;DHT22;1646;52.450;13.326;2023-04-01T06:28:49;12.00;99.90
3268;DHT22;1646;52.450;13.326;2023-04-01T06:34:02;11.90;99.90
3268;DHT22;1646;52.450;13.326;2023-04-01T06:39:19;11.90;99.90
3268;DHT22;1646;52.450;13.326;2023-04-01T06:44:31;11.90;99.90
3268;DHT22;1646;52.450;13.326;2023-04-01T06:49:55;12.00;99.90
3268;DHT22;1646;52.450;13.326;2023-04-01T06:55:34;12.10;99.90
3268;DHT22;1646;52.450;13.326;2023-04-01T07:00:42;12.10;99.90
3268;DHT22;1646;52.450;13.326;2023-04-01T07:05:43;12.20;99.90
3268;DHT22;1646;52.450;13.326;2023-04-01T07:10:47;12.30;99.90
3268;DHT22;1646;52.450;13.326;2023-04-01T07:16:12;12.60;99.90
3268;DHT22;1646;52.450;13.326;2023-04-01T07:21:33;12.70;99.90
3268;DHT22;1646;52.450;13.326;2023-04-01T07:26:44;12.70;99.90
3268;DHT22;1646;52.450;13.326;2023-04-01T07:32:07;12.90;99.90
3268;DHT22;1646;52.450;13.326;2023-04-01T07:37:10;13.20;99.90
3268;DHT22;1646;52.450;13.326;2023-04-01T07:42:19;13.70;99.90
3268;DHT22;1646;52.450;13.326;2023-04-01T07:47:32;13.90;99.90
3268;DHT22;1646;52.450;13.326;2023-04-01T07:52:35;13.90;99.90
3268;DHT22;1646;52.450;13.326;2023-04-01T07:57:53;13.90;99.90
3268;DHT22;1646;52.450;13.326;2023-04-01T08:03:10;13.80;99.90
3268;DHT22;1646;52.450;13.326;2023-04-01T08:08:18;13.80;99.90
3268;DHT22;1646;52.450;13.326;2023-04-01T08:13:40;13.70;99.90
3268;DHT22;1646;52.450;13.326;2023-04-01T08:18:50;13.50;99.90
3268;DHT22;1646;52.450;13.326;2023-04-01T08:23:55;13.50;99.90
3268;DHT22;1646;52.450;13.326;2023-04-01T08:28:59;13.50;99.90
3268;DHT22;1646;52.450;13.326;2023-04-01T08:34:01;13.40;99.90
3268;DHT22;1646;52.450;13.326;2023-04-01T08:39:06;13.30;99.90
3268;DHT22;1646;52.450;13.326;2023-04-01T08:44:37;13.10;99.90
3268;DHT22;1646;52.450;13.326;2023-04-01T08:50:17;13.10;99.90
3268;DHT22;1646;52.450;13.326;2023-04-01T08:55:37;13.20;99.90
3268;DHT22;1646;52.450;13.326;2023-04-01T09:00:46;13.60;99.90
3268;DHT22;1646;52.450;13.326;2023-04-01T09:11:45;13.90;99.90
3268;DHT22;1646;52.450;13.326;2023-04-01T09:17:23;14.00;99.90
3268;DHT22;1646;52.450;13.326;2023-04-01T09:22:40;13.80;99.90
3268;DHT22;1646;52.450;13.326;2023-04-01T09:27:56;13.30;99.90
3268;DHT22;1646;52.450;13.326;2023-04-01T09:38:29;12.90;99.90
3268;DHT22;1646;52.450;13.326;2023-04-01T09:43:34;12.70;99.90
3268;DHT22;1646;52.450;13.326;2023-04-01T09:49:11;12.50;99.90
3268;DHT22;1646;52.450;13.326;2023-04-01T09:54:24;12.40;99.90
3268;DHT22;1646;52.450;13.326;2023-04-01T09:59:44;12.40;99.90
3268;DHT22;1646;52.450;13.326;2023-04-01T10:05:30;12.40;99.90
3268;DHT22;1646;52.450;13.326;2023-04-01T10:10:51;12.50;99.90
3268;DHT22;1646;52.450;13.326;2023-04-01T10:21:22;12.20;99.90
3268;DHT22;1646;52.450;13.326;2023-04-01T10:26:42;12.20;99.90
3268;DHT22;1646;52.450;13.326;2023-04-01T10:32:43;12.20;99.90
3268;DHT22;1646;52.450;13.326;2023-04-01T10:38:05;12.20;99.90
3268;DHT22;1646;52.450;13.326;2023-04-01T10:54:49;12.30;99.90
3268;DHT22;1646;52.450;13.326;2023-04-01T11:00:32;12.40;99.90
3268;DHT22;1646;52.450;13.326;2023-04-01T11:17:53;12.60;99.90
3268;DHT22;1646;52.450;13.326;2023-04-01T11:23:20;12.70;99.90
3268;DHT22;1646;52.450;13.326;2023-04-01T11:28:54;12.70;99.90
3268;DHT22;1646;52.450;13.326;2023-04-01T11:34:05;12.60;99.90
3268;DHT22;1646;52.450;13.326;2023-04-01T11:39:22;12.40;99.90
3268;DHT22;1646;52.450;13.326;2023-04-01T11:44:35;12.20;99.90
3268;DHT22;1646;52.450;13.326;2023-04-01T11:49:56;12.20;99.90
3268;DHT22;1646;52.450;13.326;2023-04-01T11:55:24;12.00;99.90
3268;DHT22;1646;52.450;13.326;2023-04-01T12:00:37;11.90;99.90
3268;DHT22;1646;52.450;13.326;2023-04-01T12:05:45;11.90;99.90
3268;DHT22;1646;52.450;13.326;2023-04-01T12:10:51;11.90;99.90
3268;DHT22;1646;52.450;13.326;2023-04-01T12:16:00;11.90;99.90
3268;DHT22;1646;52.450;13.326;2023-04-01T12:21:07;11.80;99.90
3268;DHT22;1646;52.450;13.326;2023-04-01T12:31:31;11.60;99.90
3268;DHT22;1646;52.450;13.326;2023-04-01T12:36:43;11.60;99.90
3268;DHT22;1646;52.450;13.326;2023-04-01T12:41:52;11.50;99.90
3268;DHT22;1646;52.450;13.326;2023-04-01T12:47:06;11.50;99.90
3268;DHT22;1646;52.450;13.326;2023-04-01T12:52:11;11.50;99.90
3268;DHT22;1646;52.450;13.326;2023-04-01T12:57:24;11.60;99.90
3268;DHT22;1646;52.450;13.326;2023-04-01T13:02:36;11.80;99.90
3268;DHT22;1646;52.450;13.326;2023-04-01T13:07:57;11.70;99.90
3268;DHT22;1646;52.450;13.326;2023-04-01T13:18:31;11.60;99.90
3268;DHT22;1646;52.450;13.326;2023-04-01T13:23:41;11.70;99.90
3268;DHT22;1646;52.450;13.326;2023-04-01T13:28:52;11.70;99.90
3268;DHT22;1646;52.450;13.326;2023-04-01T13:34:04;11.60;99.90
3268;DHT22;1646;52.450;13.326;2023-04-01T13:39:18;11.50;99.90
3268;DHT22;1646;52.450;13.326;2023-04-01T13:44:22;11.40;99.90
3268;DHT22;1646;52.450;13.326;2023-04-01T13:49:57;11.30;99.90
3268;DHT22;1646;52.450;13.326;2023-04-01T13:55:20;11.30;99.90
3268;DHT22;1646;52.450;13.326;2023-04-01T14:00:42;11.30;99.90
3268;DHT22;1646;52.450;13.326;2023-04-01T14:05:50;11.30;99.90
3268;DHT22;1646;52.450;13.326;2023-04-01T14:10:58;11.10;99.90
3268;DHT22;1646;52.450;13.326;2023-04-01T14:16:13;11.30;99.90
3268;DHT22;1646;52.450;13.326;2023-04-01T14:21:19;11.00;99.90
3268;DHT22;1646;52.450;13.326;2023-04-01T14:26:45;10.90;99.90
3268;DHT22;1646;52.450;13.326;2023-04-01T14:31:59;10.80;99.90
3268;DHT22;1646;52.450;13.326;2023-04-01T14:37:19;10.70;99.90
3268;DHT22;1646;52.450;13.326;2023-04-01T14:42:41;10.50;99.90
3268;DHT22;1646;52.450;13.326;2023-04-01T14:47:47;10.40;99.90
3268;DHT22;1646;52.450;13.326;2023-04-01T14:52:55;10.30;99.90
3268;DHT22;1646;52.450;13.326;2023-04-01T14:58:04;10.20;99.90
3268;DHT22;1646;52.450;13.326;2023-04-01T15:03:11;10.30;99.90
3268;DHT22;1646;52.450;13.326;2023-04-01T15:08:17;10.30;99.90
3268;DHT22;1646;52.450;13.326;2023-04-01T15:13:29;10.20;99.90
3268;DHT22;1646;52.450;13.326;2023-04-01T15:18:41;10.10;99.90
3268;DHT22;1646;52.450;13.326;2023-04-01T15:23:49;10.00;99.90
3268;DHT22;1646;52.450;13.326;2023-04-01T15:29:17;9.90;99.90
3268;DHT22;1646;52.450;13.326;2023-04-01T15:34:35;9.90;99.90
3268;DHT22;1646;52.450;13.326;2023-04-01T15:39:48;9.80;99.90
3268;DHT22;1646;52.450;13.326;2023-04-01T15:44:57;9.80;99.90
3268;DHT22;1646;52.450;13.326;2023-04-01T15:50:11;9.70;99.90
3268;DHT22;1646;52.450;13.326;2023-04-01T15:55:19;9.70;99.90
3268;DHT22;1646;52.450;13.326;2023-04-01T16:00:23;9.70;99.90
3268;DHT22;1646;52.450;13.326;2023-04-01T16:05:35;9.80;99.90
3268;DHT22;1646;52.450;13.326;2023-04-01T16:10:50;9.50;99.90
3268;DHT22;1646;52.450;13.326;2023-04-01T16:15:59;9.50;99.90
3268;DHT22;1646;52.450;13.326;2023-04-01T16:21:02;9.40;99.90
3268;DHT22;1646;52.450;13.326;2023-04-01T16:26:07;9.50;99.90
3268;DHT22;1646;52.450;13.326;2023-04-01T16:31:12;9.50;99.90
3268;DHT22;1646;52.450;13.326;2023-04-01T16:36:22;9.40;99.90
3268;DHT22;1646;52.450;13.326;2023-04-01T16:41:26;9.30;99.90
3268;DHT22;1646;52.450;13.326;2023-04-01T16:46:32;9.40;99.90
3268;DHT22;1646;52.450;13.326;2023-04-01T16:51:37;9.30;99.90
3268;DHT22;1646;52.450;13.326;2023-04-01T16:56:40;9.00;99.90
3268;DHT22;1646;52.450;13.326;2023-04-01T17:01:47;8.90;99.90
3268;DHT22;1646;52.450;13.326;2023-04-01T17:06:52;8.70;99.90
3268;DHT22;1646;52.450;13.326;2023-04-01T17:11:57;8.60;99.90
3268;DHT22;1646;52.450;13.326;2023-04-01T17:22:32;8.60;99.90
3268;DHT22;1646;52.450;13.326;2023-04-01T17:27:40;8.50;99.90
3268;DHT22;1646;52.450;13.326;2023-04-01T17:32:50;8.60;99.90
3268;DHT22;1646;52.450;13.326;2023-04-01T17:37:58;8.40;99.90
3268;DHT22;1646;52.450;13.326;2023-04-01T17:43:04;8.40;99.90
3268;DHT22;1646;52.450;13.326;2023-04-01T17:48:18;8.20;99.90
3268;DHT22;1646;52.450;13.326;2023-04-01T17:53:27;8.10;99.90
3268;DHT22;1646;52.450;13.326;2023-04-01T17:58:32;8.10;99.90
3268;DHT22;1646;52.450;13.326;2023-04-01T18:03:54;8.00;99.90
3268;DHT22;1646;52.450;13.326;2023-04-01T18:08:58;7.90;99.90
3268;DHT22;1646;52.450;13.326;2023-04-01T18:14:18;7.70;99.90
3268;DHT22;1646;52.450;13.326;2023-04-01T18:19:26;7.80;99.90
3268;DHT22;1646;52.450;13.326;2023-04-01T18:24:29;7.90;99.90
3268;DHT22;1646;52.450;13.326;2023-04-01T18:29:35;7.90;99.90
3268;DHT22;1646;52.450;13.326;2023-04-01T18:34:43;7.80;99.90
3268;DHT22;1646;52.450;13.326;2023-04-01T18:39:50;7.70;99.90
3268;DHT22;1646;52.450;13.326;2023-04-01T18:44:53;7.70;99.90
3268;DHT22;1646;52.450;13.326;2023-04-01T18:49:59;7.70;99.90
3268;DHT22;1646;52.450;13.326;2023-04-01T18:55:29;7.60;99.90
3268;DHT22;1646;52.450;13.326;2023-04-01T19:00:35;7.70;99.90
3268;DHT22;1646;52.450;13.326;2023-04-01T19:05:38;7.70;99.90
3268;DHT22;1646;52.450;13.326;2023-04-01T19:10:41;7.70;99.90
3268;DHT22;1646;52.450;13.326;2023-04-01T19:15:48;7.60;99.90
3268;DHT22;1646;52.450;13.326;2023-04-01T19:20:52;7.50;99.90
3268;DHT22;1646;52.450;13.326;2023-04-01T19:25:55;7.40;99.90
3268;DHT22;1646;52.450;13.326;2023-04-01T19:30:56;7.40;99.90
3268;DHT22;1646;52.450;13.326;2023-04-01T19:36:03;7.40;99.90
3268;DHT22;1646;52.450;13.326;2023-04-01T19:41:16;7.30;99.90
3268;DHT22;1646;52.450;13.326;2023-04-01T19:46:25;7.20;99.90
3268;DHT22;1646;52.450;13.326;2023-04-01T19:51:31;7.10;99.90
3268;DHT22;1646;52.450;13.326;2023-04-01T19:56:38;7.00;99.90
3268;DHT22;1646;52.450;13.326;2023-04-01T20:01:41;7.00;99.90
3268;DHT22;1646;52.450;13.326;2023-04-01T20:06:51;7.00;99.90
3268;DHT22;1646;52.450;13.326;2023-04-01T20:11:57;7.00;99.90
3268;DHT22;1646;52.450;13.326;2023-04-01T20:17:07;7.00;99.90
3268;DHT22;1646;52.450;13.326;2023-04-01T20:22:20;7.00;99.90
3268;DHT22;1646;52.450;13.326;2023-04-01T20:27:25;7.10;99.90
3268;DHT22;1646;52.450;13.326;2023-04-01T20:32:43;7.00;99.90
3268;DHT22;1646;52.450;13.326;2023-04-01T20:37:49;6.90;99.90
3268;DHT22;1646;52.450;13.326;2023-04-01T20:43:07;6.90;99.90
3268;DHT22;1646;52.450;13.326;2023-04-01T20:53:42;6.70;99.90
3268;DHT22;1646;52.450;13.326;2023-04-01T20:58:49;6.70;99.90
3268;DHT22;1646;52.450;13.326;2023-04-01T21:03:54;6.60;99.90
3268;DHT22;1646;52.450;13.326;2023-04-01T21:09:06;6.60;99.90
3268;DHT22;1646;52.450;13.326;2023-04-01T21:14:29;6.50;99.90
3268;DHT22;1646;52.450;13.326;2023-04-01T21:19:41;6.50;99.90
3268;DHT22;1646;52.450;13.326;2023-04-01T21:24:58;6.40;99.90
3268;DHT22;1646;52.450;13.326;2023-04-01T21:30:07;6.30;99.90
3268;DHT22;1646;52.450;13.326;2023-04-01T21:35:21;6.20;99.90
3268;DHT22;1646;52.450;13.326;2023-04-01T21:40:57;6.10;99.90
3268;DHT22;1646;52.450;13.326;2023-04-01T21:46:18;6.00;99.90
3268;DHT22;1646;52.450;13.326;2023-04-01T21:52:10;6.10;99.90
3268;DHT22;1646;52.450;13.326;2023-04-01T22:03:15;6.00;99.90
3268;DHT22;1646;52.450;13.326;2023-04-01T22:08:48;5.90;99.90
3268;DHT22;1646;52.450;13.326;2023-04-01T22:13:50;5.90;99.90
3268;DHT22;1646;52.450;13.326;2023-04-01T22:19:00;5.90;99.90
3268;DHT22;1646;52.450;13.326;2023-04-01T22:24:06;5.90;99.90
3268;DHT22;1646;52.450;13.326;2023-04-01T22:29:12;5.90;99.90
3268;DHT22;1646;52.450;13.326;2023-04-01T22:34:19;5.90;99.90
3268;DHT22;1646;52.450;13.326;2023-04-01T22:39:29;5.90;99.90
3268;DHT22;1646;52.450;13.326;2023-04-01T22:44:40;5.80;99.90
3268;DHT22;1646;52.450;13.326;2023-04-01T22:49:45;5.80;99.90
3268;DHT22;1646;52.450;13.326;2023-04-01T22:54:46;5.70;99.90
3268;DHT22;1646;52.450;13.326;2023-04-01T22:59:50;5.70;99.90
3268;DHT22;1646;52.450;13.326;2023-04-01T23:04:55;5.80;99.90
3268;DHT22;1646;52.450;13.326;2023-04-01T23:09:56;5.90;99.90
3268;DHT22;1646;52.450;13.326;2023-04-01T23:14:56;5.90;99.90
3268;DHT22;1646;52.450;13.326;2023-04-01T23:20:02;5.90;99.90
3268;DHT22;1646;52.450;13.326;2023-04-01T23:25:18;5.80;99.90
3268;DHT22;1646;52.450;13.326;2023-04-01T23:30:46;5.80;99.90
3268;DHT22;1646;52.450;13.326;2023-04-01T23:35:48;5.70;99.90
3268;DHT22;1646;52.450;13.326;2023-04-01T23:40:48;5.80;99.90
3268;DHT22;1646;52.450;13.326;2023-04-01T23:45:48;5.80;99.90
3268;DHT22;1646;52.450;13.326;2023-04-01T23:50:47;5.80;99.90
3268;DHT22;1646;52.450;13.326;2023-04-01T23:55:46;5.80;99.90
